createdAt,value
2017-07-21T00:00:15.241Z,16.70
2017-07-21T00:02:43.600Z,16.60
2017-07-21T00:05:11.176Z,16.60
2017-07-21T00:07:38.778Z,16.70
2017-07-21T00:10:06.355Z,16.70
2017-07-21T00:12:34.048Z,16.60
2017-07-21T00:15:02.420Z,16.60
2017-07-21T00:17:29.996Z,16.60
2017-07-21T00:19:57.600Z,16.50
2017-07-21T00:22:25.177Z,16.50
2017-07-21T00:24:52.787Z,16.50
2017-07-21T00:27:20.361Z,16.40
2017-07-21T00:29:47.946Z,16.40
2017-07-21T00:32:15.532Z,16.30
2017-07-21T00:34:43.144Z,16.30
2017-07-21T00:37:10.761Z,16.30
2017-07-21T00:39:38.397Z,16.30
2017-07-21T00:42:05.967Z,16.20
2017-07-21T00:44:34.328Z,16.20
2017-07-21T00:47:01.914Z,16.20
2017-07-21T00:49:30.267Z,16.20
2017-07-21T00:51:57.850Z,16.20
2017-07-21T00:54:25.451Z,16.20
2017-07-21T00:56:53.027Z,16.20
2017-07-21T00:59:20.616Z,16.30
2017-07-21T01:01:48.972Z,16.20
2017-07-21T01:04:16.568Z,16.20
2017-07-21T01:06:44.903Z,16.20
2017-07-21T01:09:12.515Z,16.20
2017-07-21T01:11:40.110Z,16.20
2017-07-21T01:14:07.680Z,16.20
2017-07-21T01:16:35.256Z,16.10
2017-07-21T01:19:02.845Z,16.20
2017-07-21T01:21:30.437Z,16.10
2017-07-21T01:23:58.021Z,16.10
2017-07-21T01:26:25.615Z,16.10
2017-07-21T01:28:53.957Z,16.10
2017-07-21T01:31:21.540Z,16.10
2017-07-21T01:33:49.123Z,16.00
2017-07-21T01:36:16.705Z,16.00
2017-07-21T01:38:44.272Z,16.00
2017-07-21T01:41:11.835Z,16.00
2017-07-21T01:43:39.394Z,15.90
2017-07-21T01:46:06.975Z,15.90
2017-07-21T01:48:34.572Z,15.90
2017-07-21T01:51:02.959Z,15.90
2017-07-21T01:53:30.530Z,15.90
2017-07-21T01:55:58.102Z,15.90
2017-07-21T01:58:25.704Z,15.90
2017-07-21T02:00:53.293Z,15.90
2017-07-21T02:03:20.933Z,15.90
2017-07-21T02:05:48.518Z,15.90
2017-07-21T02:08:16.146Z,15.90
2017-07-21T02:10:44.505Z,15.80
2017-07-21T02:13:12.083Z,15.80
2017-07-21T02:15:40.475Z,15.80
2017-07-21T02:18:08.073Z,15.80
2017-07-21T02:20:35.666Z,15.80
2017-07-21T02:23:03.244Z,15.80
2017-07-21T02:25:30.833Z,15.90
2017-07-21T02:27:58.489Z,15.90
2017-07-21T02:30:26.124Z,15.90
2017-07-21T02:32:53.724Z,15.90
2017-07-21T02:35:21.289Z,15.90
2017-07-21T02:37:48.870Z,15.90
2017-07-21T02:40:16.734Z,16.00
2017-07-21T02:42:44.355Z,16.00
2017-07-21T02:45:11.941Z,15.90
2017-07-21T02:47:39.519Z,15.90
2017-07-21T02:50:07.088Z,15.80
2017-07-21T02:52:34.944Z,15.80
2017-07-21T02:55:02.513Z,15.70
2017-07-21T02:57:30.089Z,15.70
2017-07-21T02:59:57.648Z,15.60
2017-07-21T03:02:25.233Z,15.60
2017-07-21T03:04:52.797Z,15.60
2017-07-21T03:07:20.380Z,15.60
2017-07-21T03:09:48.214Z,15.60
2017-07-21T03:12:15.832Z,15.70
2017-07-21T03:14:43.438Z,15.60
2017-07-21T03:17:11.035Z,15.70
2017-07-21T03:19:38.701Z,15.70
2017-07-21T03:22:06.334Z,15.70
2017-07-21T03:24:34.058Z,15.70
2017-07-21T03:27:01.646Z,15.70
2017-07-21T03:29:29.235Z,15.70
2017-07-21T03:31:56.831Z,15.70
2017-07-21T03:34:25.151Z,15.60
2017-07-21T03:36:52.729Z,15.60
2017-07-21T03:39:20.320Z,15.60
2017-07-21T03:41:47.925Z,15.60
2017-07-21T03:44:15.504Z,15.60
2017-07-21T03:46:43.099Z,15.60
2017-07-21T03:49:10.675Z,15.60
2017-07-21T03:51:39.016Z,15.60
2017-07-21T03:54:06.587Z,15.50
2017-07-21T03:56:34.342Z,15.50
2017-07-21T03:59:01.909Z,15.40
2017-07-21T04:01:29.513Z,15.50
2017-07-21T04:03:57.092Z,15.40
2017-07-21T04:06:24.674Z,15.50
2017-07-21T04:08:52.251Z,15.50
2017-07-21T04:11:19.823Z,15.50
2017-07-21T04:13:48.172Z,15.50
2017-07-21T04:16:15.772Z,15.50
2017-07-21T04:18:43.352Z,15.50
2017-07-21T04:21:10.997Z,15.60
2017-07-21T04:23:38.584Z,15.70
2017-07-21T04:26:06.157Z,15.80
2017-07-21T04:28:33.789Z,15.80
2017-07-21T04:31:01.413Z,15.90
2017-07-21T04:33:29.763Z,16.10
2017-07-21T04:35:57.335Z,16.00
2017-07-21T04:38:24.943Z,16.10
2017-07-21T04:40:52.517Z,16.20
2017-07-21T04:43:20.105Z,16.20
2017-07-21T04:45:47.689Z,16.30
2017-07-21T04:48:16.036Z,16.50
2017-07-21T04:50:43.633Z,16.40
2017-07-21T04:53:11.988Z,16.70
2017-07-21T04:55:39.564Z,16.70
2017-07-21T04:58:07.919Z,16.80
2017-07-21T05:00:35.495Z,16.80
2017-07-21T05:03:03.085Z,16.90
2017-07-21T05:05:30.683Z,17.00
2017-07-21T05:07:58.264Z,17.10
2017-07-21T05:10:25.836Z,17.20
2017-07-21T05:12:53.427Z,17.30
2017-07-21T05:15:21.000Z,17.40
2017-07-21T05:17:48.588Z,17.50
2017-07-21T05:20:16.153Z,17.60
2017-07-21T05:22:43.738Z,17.70
2017-07-21T05:25:11.324Z,17.70
2017-07-21T05:27:38.890Z,17.80
2017-07-21T05:30:06.458Z,17.90
2017-07-21T05:32:35.055Z,18.00
2017-07-21T05:35:02.625Z,18.10
2017-07-21T05:37:30.486Z,18.20
2017-07-21T05:39:58.065Z,18.20
2017-07-21T05:42:25.635Z,18.30
2017-07-21T05:44:53.230Z,18.40
2017-07-21T05:47:20.809Z,18.40
2017-07-21T05:49:48.388Z,18.40
2017-07-21T05:52:15.951Z,18.50
2017-07-21T05:54:43.534Z,18.60
2017-07-21T05:57:11.126Z,18.70
2017-07-21T05:59:38.711Z,18.80
2017-07-21T06:02:06.281Z,18.90
2017-07-21T06:04:33.874Z,19.00
2017-07-21T06:07:01.462Z,19.10
2017-07-21T06:09:29.025Z,19.20
2017-07-21T06:11:56.659Z,19.30
2017-07-21T06:14:24.261Z,19.40
2017-07-21T06:16:51.839Z,19.50
2017-07-21T06:19:19.422Z,19.60
2017-07-21T06:21:47.784Z,19.80
2017-07-21T06:24:15.376Z,19.70
2017-07-21T06:26:42.957Z,19.80
2017-07-21T06:29:10.544Z,19.90
2017-07-21T06:31:38.125Z,20.00
2017-07-21T06:34:06.480Z,20.20
2017-07-21T06:36:34.053Z,20.10
2017-07-21T06:39:01.662Z,20.20
2017-07-21T06:41:29.241Z,20.30
2017-07-21T06:43:56.829Z,20.30
2017-07-21T06:46:24.402Z,20.40
2017-07-21T06:48:52.742Z,20.60
2017-07-21T06:51:20.315Z,20.60
2017-07-21T06:53:47.901Z,20.60
2017-07-21T06:56:15.473Z,20.70
2017-07-21T06:58:43.068Z,20.80
2017-07-21T07:01:10.641Z,20.90
2017-07-21T07:03:38.233Z,20.90
2017-07-21T07:06:06.588Z,21.10
2017-07-21T07:08:37.782Z,21.10
2017-07-21T07:11:05.583Z,21.20
2017-07-21T07:13:33.806Z,21.30
2017-07-21T07:16:01.395Z,21.40
2017-07-21T07:18:28.962Z,21.50
2017-07-21T07:20:56.561Z,21.50
2017-07-21T07:23:24.136Z,21.60
2017-07-21T07:25:51.761Z,21.60
2017-07-21T07:28:19.382Z,21.70
2017-07-21T07:30:46.977Z,21.80
2017-07-21T07:33:15.161Z,21.90
2017-07-21T07:35:42.784Z,21.90
2017-07-21T07:38:10.375Z,21.90
2017-07-21T07:40:37.974Z,22.00
2017-07-21T07:43:05.559Z,22.10
2017-07-21T07:45:34.149Z,22.20
2017-07-21T07:48:01.811Z,22.30
2017-07-21T07:50:29.453Z,22.30
2017-07-21T07:52:57.065Z,22.30
2017-07-21T07:55:24.653Z,22.50
2017-07-21T07:58:01.349Z,22.60
2017-07-21T08:00:29.336Z,22.70
2017-07-21T08:02:57.211Z,22.70
2017-07-21T08:05:24.801Z,22.70
2017-07-21T08:07:52.644Z,22.80
2017-07-21T08:10:20.228Z,22.90
2017-07-21T08:12:47.907Z,22.90
2017-07-21T08:15:16.284Z,23.10
2017-07-21T08:17:43.873Z,23.10
2017-07-21T08:20:11.497Z,23.20
2017-07-21T08:22:39.847Z,23.30
2017-07-21T08:25:07.736Z,23.30
2017-07-21T08:27:35.329Z,23.40
2017-07-21T08:30:02.904Z,23.40
2017-07-21T08:32:30.523Z,23.50
2017-07-21T08:34:58.891Z,23.60
2017-07-21T08:37:27.259Z,23.60
2017-07-21T08:39:58.474Z,23.60
2017-07-21T08:42:26.065Z,23.60
2017-07-21T08:44:53.659Z,23.50
2017-07-21T08:47:21.262Z,23.50
2017-07-21T08:49:48.849Z,23.50
2017-07-21T08:52:16.701Z,23.60
2017-07-21T08:54:44.267Z,23.60
2017-07-21T08:57:11.837Z,23.70
2017-07-21T08:59:40.202Z,23.70
2017-07-21T09:02:07.768Z,23.70
2017-07-21T09:04:36.140Z,23.90
2017-07-21T09:07:04.471Z,23.90
2017-07-21T09:09:32.049Z,23.90
2017-07-21T09:11:59.643Z,24.00
2017-07-21T09:14:27.248Z,24.10
2017-07-21T09:16:54.868Z,24.20
2017-07-21T09:19:23.485Z,24.40
2017-07-21T09:21:51.073Z,24.40
2017-07-21T09:24:18.665Z,24.50
2017-07-21T09:26:46.253Z,24.60
2017-07-21T09:29:13.817Z,24.60
2017-07-21T09:31:41.396Z,24.60
2017-07-21T09:34:08.992Z,24.70
2017-07-21T09:36:36.565Z,24.80
2017-07-21T09:39:04.138Z,24.90
2017-07-21T09:41:31.726Z,24.90
2017-07-21T09:43:59.294Z,25.00
2017-07-21T09:46:27.189Z,25.00
2017-07-21T09:48:54.768Z,25.00
2017-07-21T09:51:22.332Z,25.20
2017-07-21T09:53:50.384Z,25.20
2017-07-21T09:56:17.957Z,25.20
2017-07-21T09:58:46.295Z,25.20
2017-07-21T10:01:13.863Z,25.20
2017-07-21T10:03:41.460Z,25.30
2017-07-21T10:06:09.054Z,25.40
2017-07-21T10:08:36.971Z,25.60
2017-07-21T10:11:04.581Z,25.70
2017-07-21T10:13:32.194Z,25.90
2017-07-21T10:16:00.600Z,26.10
2017-07-21T10:18:28.501Z,26.00
2017-07-21T10:20:56.117Z,26.10
2017-07-21T10:23:23.741Z,26.20
2017-07-21T10:25:51.927Z,26.30
2017-07-21T10:28:19.513Z,26.40
2017-07-21T10:30:47.171Z,26.50
2017-07-21T10:33:15.536Z,26.60
2017-07-21T10:35:43.201Z,26.60
2017-07-21T10:38:10.837Z,26.70
2017-07-21T10:40:38.416Z,26.80
2017-07-21T10:43:06.017Z,26.90
2017-07-21T10:45:34.645Z,27.10
2017-07-21T10:48:02.690Z,27.20
2017-07-21T10:50:30.269Z,27.20
2017-07-21T10:52:57.833Z,27.40
2017-07-21T10:55:25.467Z,27.40
2017-07-21T10:58:02.059Z,27.50
2017-07-21T11:00:30.053Z,27.70
2017-07-21T11:02:57.644Z,27.90
2017-07-21T11:05:25.253Z,27.90
2017-07-21T11:07:52.837Z,27.90
2017-07-21T11:10:20.788Z,27.90
2017-07-21T11:12:49.132Z,27.90
2017-07-21T11:15:18.073Z,27.80
2017-07-21T11:17:45.696Z,28.00
2017-07-21T11:20:13.294Z,28.10
2017-07-21T11:22:40.902Z,28.20
2017-07-21T11:25:08.531Z,28.40
2017-07-21T11:27:36.125Z,28.60
2017-07-21T11:30:03.708Z,28.70
2017-07-21T11:32:31.331Z,28.80
2017-07-21T11:34:58.904Z,28.70
2017-07-21T11:37:26.873Z,28.80
2017-07-21T11:39:54.452Z,28.90
2017-07-21T11:42:22.146Z,29.00
2017-07-21T11:44:49.729Z,28.80
2017-07-21T11:47:17.317Z,28.90
2017-07-21T11:49:44.907Z,29.00
2017-07-21T11:52:12.483Z,29.20
2017-07-21T11:54:40.224Z,29.30
2017-07-21T11:57:08.601Z,29.70
2017-07-21T11:59:36.958Z,29.80
2017-07-21T12:02:04.510Z,29.80
2017-07-21T12:04:32.165Z,29.80
2017-07-21T12:07:01.333Z,29.80
2017-07-21T12:09:30.013Z,29.90
2017-07-21T12:11:57.619Z,30.10
2017-07-21T12:14:26.008Z,30.30
2017-07-21T12:16:53.589Z,30.30
2017-07-21T12:19:21.294Z,30.30
2017-07-21T12:21:48.900Z,30.40
2017-07-21T12:24:17.360Z,30.60
2017-07-21T12:26:44.977Z,30.60
2017-07-21T12:29:12.602Z,30.60
2017-07-21T12:31:40.954Z,30.60
2017-07-21T12:34:08.565Z,30.60
2017-07-21T12:36:36.445Z,30.80
2017-07-21T12:39:04.024Z,30.80
2017-07-21T12:41:31.602Z,30.80
2017-07-21T12:43:59.184Z,30.80
2017-07-21T12:46:26.787Z,31.00
2017-07-21T12:48:54.437Z,31.20
2017-07-21T12:51:22.025Z,31.30
2017-07-21T12:53:49.634Z,31.60
2017-07-21T12:56:17.240Z,31.80
2017-07-21T12:58:44.830Z,32.00
2017-07-21T13:01:12.457Z,32.20
2017-07-21T13:03:40.059Z,32.40
2017-07-21T13:06:07.635Z,32.30
2017-07-21T13:08:35.365Z,32.00
2017-07-21T13:11:03.009Z,31.70
2017-07-21T13:13:30.920Z,31.20
2017-07-21T13:15:58.576Z,31.00
2017-07-21T13:18:26.225Z,31.00
2017-07-21T13:20:55.597Z,31.20
2017-07-21T13:23:23.169Z,31.20
2017-07-21T13:25:50.781Z,31.30
2017-07-21T13:28:18.378Z,31.20
2017-07-21T13:30:45.988Z,31.20
2017-07-21T13:33:13.628Z,31.00
2017-07-21T13:35:41.207Z,31.10
2017-07-21T13:38:08.958Z,31.00
2017-07-21T13:40:37.286Z,31.20
2017-07-21T13:43:04.925Z,31.10
2017-07-21T13:45:32.518Z,31.00
2017-07-21T13:48:00.116Z,31.00
2017-07-21T13:50:28.445Z,31.20
2017-07-21T13:52:56.438Z,31.20
2017-07-21T13:55:24.036Z,31.70
2017-07-21T13:57:51.619Z,32.10
2017-07-21T14:00:19.217Z,32.20
2017-07-21T14:02:47.028Z,32.30
2017-07-21T14:05:14.612Z,32.30
2017-07-21T14:07:42.200Z,32.20
2017-07-21T14:10:10.806Z,32.10
2017-07-21T14:12:38.385Z,31.70
2017-07-21T14:15:06.150Z,31.40
2017-07-21T14:17:33.749Z,31.30
2017-07-21T14:20:01.364Z,31.20
2017-07-21T14:22:29.002Z,31.10
2017-07-21T14:24:56.582Z,31.10
2017-07-21T14:27:24.258Z,31.20
2017-07-21T14:29:51.861Z,31.50
2017-07-21T14:32:19.508Z,31.80
2017-07-21T14:36:13.171Z,32.00
2017-07-21T14:38:40.766Z,32.30
2017-07-21T14:41:08.365Z,32.30
2017-07-21T14:43:36.295Z,32.10
2017-07-21T14:46:04.652Z,31.40
2017-07-21T14:48:33.032Z,31.10
2017-07-21T14:51:00.650Z,31.10
2017-07-21T14:53:28.216Z,30.80
2017-07-21T14:55:55.836Z,30.60
2017-07-21T14:58:23.480Z,30.20
2017-07-21T15:00:51.905Z,31.30
2017-07-21T15:03:19.495Z,31.30
2017-07-21T15:05:47.144Z,32.50
2017-07-21T15:08:14.731Z,34.20
2017-07-21T15:10:42.677Z,36.00
2017-07-21T15:13:10.320Z,38.30
2017-07-21T15:15:38.079Z,40.20
2017-07-21T15:18:06.129Z,41.40
2017-07-21T15:20:34.512Z,41.90
2017-07-21T15:23:02.099Z,41.80
2017-07-21T15:25:29.841Z,42.50
2017-07-21T15:27:57.423Z,43.30
2017-07-21T15:30:25.884Z,43.50
2017-07-21T15:32:53.469Z,44.30
2017-07-21T15:35:21.081Z,44.20
2017-07-21T15:37:48.734Z,44.20
2017-07-21T15:40:17.105Z,45.10
2017-07-21T15:42:44.719Z,45.00
2017-07-21T15:45:12.298Z,44.80
2017-07-21T15:47:40.166Z,45.10
2017-07-21T15:50:07.752Z,45.50
2017-07-21T15:52:36.522Z,45.20
2017-07-21T15:55:04.125Z,45.30
2017-07-21T15:57:31.717Z,44.80
2017-07-21T15:59:59.309Z,44.90
2017-07-21T16:02:27.655Z,45.60
2017-07-21T16:04:55.237Z,45.50
2017-07-21T16:07:22.980Z,45.60
2017-07-21T16:09:51.627Z,45.00
2017-07-21T16:12:19.266Z,44.90
2017-07-21T16:14:46.891Z,44.40
2017-07-21T16:17:14.558Z,43.50
2017-07-21T16:19:43.007Z,39.80
2017-07-21T16:22:10.734Z,39.70
2017-07-21T16:24:39.100Z,36.40
2017-07-21T16:27:08.435Z,34.80
2017-07-21T16:29:36.025Z,34.70
2017-07-21T16:32:03.620Z,33.50
2017-07-21T16:34:32.522Z,31.20
2017-07-21T16:37:00.931Z,30.30
2017-07-21T16:39:28.875Z,30.20
2017-07-21T16:41:56.519Z,29.60
2017-07-21T16:44:24.130Z,29.00
2017-07-21T16:46:51.725Z,28.60
2017-07-21T16:49:19.307Z,28.30
2017-07-21T16:51:46.864Z,28.10
2017-07-21T16:54:14.419Z,27.90
2017-07-21T16:56:42.919Z,27.60
2017-07-21T16:59:10.491Z,27.60
2017-07-21T17:01:38.089Z,27.50
2017-07-21T17:04:05.661Z,27.50
2017-07-21T17:06:33.306Z,27.40
2017-07-21T17:09:00.877Z,27.30
2017-07-21T17:11:28.489Z,27.30
2017-07-21T17:13:56.053Z,27.20
2017-07-21T17:16:23.606Z,27.20
2017-07-21T17:18:51.195Z,27.00
2017-07-21T17:21:18.797Z,26.90
2017-07-21T17:23:46.390Z,26.80
2017-07-21T17:26:14.013Z,26.60
2017-07-21T17:28:41.597Z,26.50
2017-07-21T17:31:09.199Z,26.50
2017-07-21T17:33:36.790Z,26.50
2017-07-21T17:36:05.168Z,26.40
2017-07-21T17:38:33.518Z,26.30
2017-07-21T17:41:01.397Z,26.30
2017-07-21T17:43:28.985Z,26.20
2017-07-21T17:45:56.579Z,26.20
2017-07-21T17:48:24.206Z,26.10
2017-07-21T17:50:52.530Z,25.80
2017-07-21T17:53:20.124Z,25.80
2017-07-21T17:55:47.721Z,25.80
2017-07-21T17:58:15.873Z,25.70
2017-07-21T18:00:43.479Z,25.60
2017-07-21T18:03:11.070Z,25.60
2017-07-21T18:05:40.990Z,25.60
2017-07-21T18:08:08.860Z,25.50
2017-07-21T18:10:36.464Z,25.40
2017-07-21T18:13:04.072Z,25.30
2017-07-21T18:15:31.823Z,25.20
2017-07-21T18:17:59.435Z,25.20
2017-07-21T18:20:27.042Z,25.10
2017-07-21T18:22:54.828Z,25.10
2017-07-21T18:25:22.444Z,25.10
2017-07-21T18:27:50.072Z,25.10
2017-07-21T18:30:17.682Z,25.00
2017-07-21T18:32:45.278Z,24.90
2017-07-21T18:35:13.694Z,24.80
2017-07-21T18:37:41.315Z,24.80
2017-07-21T18:40:08.905Z,24.70
2017-07-21T18:42:36.529Z,24.60
2017-07-21T18:45:04.086Z,24.60
2017-07-21T18:47:32.198Z,24.50
2017-07-21T18:49:59.950Z,24.50
2017-07-21T18:52:27.680Z,24.40
2017-07-21T18:54:55.262Z,24.30
2017-07-21T18:57:22.858Z,24.30
2017-07-21T18:59:51.000Z,24.20
2017-07-21T19:02:18.696Z,24.20
2017-07-21T19:04:46.678Z,24.10
2017-07-21T19:07:14.239Z,24.00
2017-07-21T19:09:41.812Z,24.00
2017-07-21T19:12:10.164Z,23.90
2017-07-21T19:14:37.748Z,23.90
2017-07-21T19:17:06.328Z,23.80
2017-07-21T19:19:34.724Z,23.70
2017-07-21T19:22:03.101Z,23.70
2017-07-21T19:24:31.494Z,23.60
2017-07-21T19:26:59.185Z,23.60
2017-07-21T19:29:26.759Z,23.60
2017-07-21T19:31:54.354Z,23.60
2017-07-21T19:34:21.920Z,23.50
2017-07-21T19:36:50.281Z,23.50
2017-07-21T19:39:17.908Z,23.40
2017-07-21T19:41:45.478Z,23.40
2017-07-21T19:44:13.102Z,23.30
2017-07-21T19:46:40.869Z,23.30
2017-07-21T19:49:08.517Z,23.30
2017-07-21T19:51:36.128Z,23.30
2017-07-21T19:54:03.732Z,23.30
2017-07-21T19:56:31.405Z,23.20
2017-07-21T19:58:59.007Z,23.20
2017-07-21T20:01:26.631Z,23.10
2017-07-21T20:03:54.197Z,23.10
2017-07-21T20:06:21.787Z,23.00
2017-07-21T20:08:49.374Z,22.90
2017-07-21T20:11:16.959Z,22.80
2017-07-21T20:13:44.520Z,22.70
2017-07-21T20:16:12.133Z,22.70
2017-07-21T20:18:39.713Z,22.60
2017-07-21T20:21:08.089Z,22.40
2017-07-21T20:23:36.426Z,22.40
2017-07-21T20:26:04.022Z,22.30
2017-07-21T20:28:31.604Z,22.30
2017-07-21T20:30:59.210Z,22.30
2017-07-21T20:33:26.772Z,22.20
2017-07-21T20:35:54.370Z,22.10
2017-07-21T20:38:22.725Z,22.00
2017-07-21T20:40:50.329Z,22.00
2017-07-21T20:43:17.916Z,22.00
2017-07-21T20:45:45.556Z,22.00
2017-07-21T20:48:13.160Z,22.00
2017-07-21T20:50:41.537Z,22.00
2017-07-21T20:53:09.124Z,22.00
2017-07-21T20:55:37.483Z,21.90
2017-07-21T20:58:05.099Z,21.90
2017-07-21T21:00:32.746Z,21.90
2017-07-21T21:03:00.312Z,21.90
2017-07-21T21:05:27.890Z,21.90
2017-07-21T21:07:55.492Z,21.80
2017-07-21T21:10:23.863Z,21.80
2017-07-21T21:12:51.442Z,21.70
2017-07-21T21:15:19.369Z,21.80
2017-07-21T21:17:46.954Z,21.70
2017-07-21T21:20:15.286Z,21.60
2017-07-21T21:22:42.868Z,21.70
2017-07-21T21:25:10.452Z,21.60
2017-07-21T21:27:38.808Z,21.50
2017-07-21T21:30:06.435Z,21.50
2017-07-21T21:32:34.362Z,21.40
2017-07-21T21:35:01.937Z,21.40
2017-07-21T21:37:31.362Z,21.30
2017-07-21T21:39:59.988Z,21.20
2017-07-21T21:42:27.567Z,21.20
2017-07-21T21:44:55.924Z,21.20
2017-07-21T21:47:23.488Z,21.10
2017-07-21T21:49:51.063Z,21.10
2017-07-21T21:52:19.429Z,21.00
2017-07-21T21:54:47.014Z,21.00
2017-07-21T21:57:14.582Z,20.90
2017-07-21T21:59:42.292Z,20.90
2017-07-21T22:02:09.877Z,20.90
2017-07-21T22:04:37.481Z,20.70
2017-07-21T22:07:05.163Z,20.60
2017-07-21T22:09:32.719Z,20.40
2017-07-21T22:12:00.309Z,20.40
2017-07-21T22:14:27.891Z,20.40
2017-07-21T22:16:56.245Z,20.40
2017-07-21T22:19:23.834Z,20.40
2017-07-21T22:21:51.395Z,20.30
2017-07-21T22:24:19.755Z,20.30
2017-07-21T22:26:47.329Z,20.30
2017-07-21T22:29:15.268Z,20.30
2017-07-21T22:31:42.854Z,20.30
2017-07-21T22:34:10.458Z,20.30
2017-07-21T22:36:38.093Z,20.30
2017-07-21T22:39:05.681Z,20.20
2017-07-21T22:41:33.284Z,20.30
2017-07-21T22:44:01.604Z,20.30
2017-07-21T22:46:29.183Z,20.30
2017-07-21T22:48:56.784Z,20.30
2017-07-21T22:51:24.383Z,20.30
2017-07-21T22:53:52.055Z,20.30
2017-07-21T22:56:19.637Z,20.30
2017-07-21T22:58:47.239Z,20.30
2017-07-21T23:01:14.840Z,20.30
2017-07-21T23:03:42.423Z,20.30
2017-07-21T23:06:10.005Z,20.30
2017-07-21T23:08:37.581Z,20.20
2017-07-21T23:11:05.166Z,20.30
2017-07-21T23:13:32.745Z,20.30
2017-07-21T23:16:00.357Z,20.30
2017-07-21T23:18:27.950Z,20.30
2017-07-21T23:20:55.551Z,20.30
2017-07-21T23:23:23.870Z,20.20
2017-07-21T23:25:51.461Z,20.20
2017-07-21T23:28:19.093Z,20.30
2017-07-21T23:30:46.665Z,20.40
2017-07-21T23:33:14.245Z,20.40
2017-07-21T23:35:41.820Z,20.40
2017-07-21T23:38:10.178Z,20.50
2017-07-21T23:40:37.761Z,20.40
2017-07-21T23:43:05.352Z,20.40
2017-07-21T23:45:32.926Z,20.40
2017-07-21T23:48:00.517Z,20.40
2017-07-21T23:50:28.101Z,20.40
2017-07-21T23:52:55.685Z,20.40
2017-07-21T23:55:23.278Z,20.30
2017-07-21T23:57:50.857Z,20.20
